sensor_id;sensor_type;location;lat;lon;timestamp;pressure;altitude;pressure_sealevel;temperature;humidity
38688;BME280;24444;53.216;-6.664;2022-11-18T00:01:04;98635.36;;;0.04;100.00
38688;BME280;24444;53.216;-6.664;2022-11-18T00:03:32;98638.49;;;0.42;100.00
38688;BME280;24444;53.216;-6.664;2022-11-18T00:05:59;98643.10;;;0.86;100.00
38688;BME280;24444;53.216;-6.664;2022-11-18T00:08:27;98645.34;;;0.32;100.00
38688;BME280;24444;53.216;-6.664;2022-11-18T00:10:54;98646.66;;;0.38;100.00
38688;BME280;24444;53.216;-6.664;2022-11-18T00:13:22;98654.33;;;0.54;100.00
38688;BME280;24444;53.216;-6.664;2022-11-18T00:15:59;98658.84;;;0.71;100.00
38688;BME280;24444;53.216;-6.664;2022-11-18T00:18:26;98655.81;;;0.43;100.00
38688;BME280;24444;53.216;-6.664;2022-11-18T00:20:54;98659.36;;;0.58;100.00
38688;BME280;24444;53.216;-6.664;2022-11-18T00:23:21;98660.37;;;0.78;100.00
38688;BME280;24444;53.216;-6.664;2022-11-18T00:25:49;98659.86;;;0.41;100.00
38688;BME280;24444;53.216;-6.664;2022-11-18T00:28:15;98664.65;;;0.10;100.00
38688;BME280;24444;53.216;-6.664;2022-11-18T00:30:43;98664.51;;;0.52;100.00
38688;BME280;24444;53.216;-6.664;2022-11-18T00:33:10;98668.44;;;0.44;100.00
38688;BME280;24444;53.216;-6.664;2022-11-18T00:35:37;98669.11;;;0.03;100.00
38688;BME280;24444;53.216;-6.664;2022-11-18T00:38:05;98673.55;;;0.43;100.00
38688;BME280;24444;53.216;-6.664;2022-11-18T00:40:32;98682.56;;;0.54;100.00
38688;BME280;24444;53.216;-6.664;2022-11-18T00:42:59;98684.69;;;0.83;100.00
38688;BME280;24444;53.216;-6.664;2022-11-18T00:45:26;98681.79;;;0.30;100.00
38688;BME280;24444;53.216;-6.664;2022-11-18T00:47:53;98679.15;;;0.01;100.00
38688;BME280;24444;53.216;-6.664;2022-11-18T00:50:20;98689.76;;;0.49;100.00
38688;BME280;24444;53.216;-6.664;2022-11-18T00:52:48;98695.16;;;0.40;100.00
38688;BME280;24444;53.216;-6.664;2022-11-18T00:55:17;98693.25;;;0.57;100.00
38688;BME280;24444;53.216;-6.664;2022-11-18T00:57:44;98700.29;;;0.31;100.00
38688;BME280;24444;53.216;-6.664;2022-11-18T01:00:12;98702.44;;;0.39;100.00
38688;BME280;24444;53.216;-6.664;2022-11-18T01:02:39;98697.07;;;-0.05;100.00
38688;BME280;24444;53.216;-6.664;2022-11-18T01:07:41;98694.55;;;0.25;100.00
38688;BME280;24444;53.216;-6.664;2022-11-18T01:10:09;98700.15;;;-0.01;100.00
38688;BME280;24444;53.216;-6.664;2022-11-18T01:12:36;98706.00;;;0.44;100.00
38688;BME280;24444;53.216;-6.664;2022-11-18T01:15:03;98703.01;;;0.18;100.00
38688;BME280;24444;53.216;-6.664;2022-11-18T01:17:31;98707.01;;;0.39;100.00
38688;BME280;24444;53.216;-6.664;2022-11-18T01:19:58;98706.36;;;0.35;100.00
38688;BME280;24444;53.216;-6.664;2022-11-18T01:22:26;98711.90;;;0.84;100.00
38688;BME280;24444;53.216;-6.664;2022-11-18T01:24:53;98719.61;;;0.42;100.00
38688;BME280;24444;53.216;-6.664;2022-11-18T01:27:20;98724.56;;;0.19;100.00
38688;BME280;24444;53.216;-6.664;2022-11-18T01:29:48;98721.26;;;0.09;100.00
38688;BME280;24444;53.216;-6.664;2022-11-18T01:32:15;98721.10;;;0.37;100.00
38688;BME280;24444;53.216;-6.664;2022-11-18T01:34:42;98720.93;;;0.75;100.00
38688;BME280;24444;53.216;-6.664;2022-11-18T01:37:09;98721.80;;;0.42;100.00
38688;BME280;24444;53.216;-6.664;2022-11-18T01:39:37;98719.31;;;0.49;100.00
38688;BME280;24444;53.216;-6.664;2022-11-18T01:42:08;98721.07;;;0.35;100.00
38688;BME280;24444;53.216;-6.664;2022-11-18T01:45:45;98723.20;;;0.53;100.00
38688;BME280;24444;53.216;-6.664;2022-11-18T01:48:15;98733.77;;;0.64;100.00
38688;BME280;24444;53.216;-6.664;2022-11-18T01:50:48;98728.25;;;1.14;100.00
38688;BME280;24444;53.216;-6.664;2022-11-18T01:53:22;98725.86;;;0.38;100.00
38688;BME280;24444;53.216;-6.664;2022-11-18T01:55:53;98727.73;;;1.24;100.00
38688;BME280;24444;53.216;-6.664;2022-11-18T01:58:25;98728.39;;;0.53;100.00
38688;BME280;24444;53.216;-6.664;2022-11-18T02:00:53;98731.44;;;0.79;100.00
38688;BME280;24444;53.216;-6.664;2022-11-18T02:03:21;98726.14;;;0.99;100.00
38688;BME280;24444;53.216;-6.664;2022-11-18T02:05:50;98730.50;;;0.70;100.00
38688;BME280;24444;53.216;-6.664;2022-11-18T02:08:18;98730.36;;;0.76;100.00
38688;BME280;24444;53.216;-6.664;2022-11-18T02:10:46;98731.88;;;1.40;100.00
38688;BME280;24444;53.216;-6.664;2022-11-18T02:13:14;98733.54;;;0.88;100.00
38688;BME280;24444;53.216;-6.664;2022-11-18T02:15:48;98736.61;;;0.81;100.00
38688;BME280;24444;53.216;-6.664;2022-11-18T02:18:28;98738.08;;;1.03;100.00
38688;BME280;24444;53.216;-6.664;2022-11-18T02:21:07;98742.70;;;1.27;100.00
38688;BME280;24444;53.216;-6.664;2022-11-18T02:24:08;98742.45;;;1.17;100.00
38688;BME280;24444;53.216;-6.664;2022-11-18T02:27:13;98743.77;;;0.81;100.00
38688;BME280;24444;53.216;-6.664;2022-11-18T02:29:51;98747.38;;;0.85;100.00
38688;BME280;24444;53.216;-6.664;2022-11-18T02:32:25;98750.68;;;0.69;100.00
38688;BME280;24444;53.216;-6.664;2022-11-18T02:34:59;98751.30;;;0.85;100.00
38688;BME280;24444;53.216;-6.664;2022-11-18T02:37:34;98753.48;;;1.14;100.00
38688;BME280;24444;53.216;-6.664;2022-11-18T02:40:06;98751.62;;;1.20;100.00
38688;BME280;24444;53.216;-6.664;2022-11-18T02:42:35;98762.16;;;0.75;100.00
38688;BME280;24444;53.216;-6.664;2022-11-18T02:45:07;98759.59;;;1.44;100.00
38688;BME280;24444;53.216;-6.664;2022-11-18T02:47:37;98764.12;;;1.05;100.00
38688;BME280;24444;53.216;-6.664;2022-11-18T02:50:10;98766.75;;;0.91;100.00
38688;BME280;24444;53.216;-6.664;2022-11-18T02:52:38;98767.17;;;1.03;100.00
38688;BME280;24444;53.216;-6.664;2022-11-18T02:55:09;98772.93;;;0.54;100.00
38688;BME280;24444;53.216;-6.664;2022-11-18T02:57:38;98776.04;;;0.97;100.00
38688;BME280;24444;53.216;-6.664;2022-11-18T03:00:06;98779.00;;;1.10;100.00
38688;BME280;24444;53.216;-6.664;2022-11-18T03:02:40;98782.18;;;1.44;100.00
38688;BME280;24444;53.216;-6.664;2022-11-18T03:05:11;98783.29;;;1.13;100.00
38688;BME280;24444;53.216;-6.664;2022-11-18T03:07:41;98784.51;;;1.32;100.00
38688;BME280;24444;53.216;-6.664;2022-11-18T03:10:10;98788.43;;;1.24;100.00
38688;BME280;24444;53.216;-6.664;2022-11-18T03:12:42;98792.04;;;1.13;100.00
38688;BME280;24444;53.216;-6.664;2022-11-18T03:15:17;98794.39;;;0.94;100.00
38688;BME280;24444;53.216;-6.664;2022-11-18T03:17:52;98799.37;;;0.76;100.00
38688;BME280;24444;53.216;-6.664;2022-11-18T03:20:25;98794.98;;;1.34;100.00
38688;BME280;24444;53.216;-6.664;2022-11-18T03:22:56;98799.32;;;0.92;100.00
38688;BME280;24444;53.216;-6.664;2022-11-18T03:25:30;98804.32;;;1.01;100.00
38688;BME280;24444;53.216;-6.664;2022-11-18T03:28:07;98806.69;;;1.17;100.00
38688;BME280;24444;53.216;-6.664;2022-11-18T03:30:38;98806.45;;;1.56;100.00
38688;BME280;24444;53.216;-6.664;2022-11-18T03:33:10;98816.00;;;0.59;100.00
38688;BME280;24444;53.216;-6.664;2022-11-18T03:35:41;98811.09;;;0.69;100.00
38688;BME280;24444;53.216;-6.664;2022-11-18T03:38:14;98818.78;;;0.88;100.00
38688;BME280;24444;53.216;-6.664;2022-11-18T03:40:46;98817.60;;;0.72;100.00
38688;BME280;24444;53.216;-6.664;2022-11-18T03:43:16;98820.21;;;0.69;100.00
38688;BME280;24444;53.216;-6.664;2022-11-18T03:45:47;98824.48;;;0.77;100.00
38688;BME280;24444;53.216;-6.664;2022-11-18T03:48:18;98822.78;;;0.84;100.00
38688;BME280;24444;53.216;-6.664;2022-11-18T03:50:49;98826.17;;;0.60;100.00
38688;BME280;24444;53.216;-6.664;2022-11-18T03:53:19;98831.53;;;1.00;100.00
38688;BME280;24444;53.216;-6.664;2022-11-18T03:55:53;98837.47;;;0.85;100.00
38688;BME280;24444;53.216;-6.664;2022-11-18T03:58:26;98836.92;;;1.40;100.00
38688;BME280;24444;53.216;-6.664;2022-11-18T04:01:00;98836.12;;;0.99;100.00
38688;BME280;24444;53.216;-6.664;2022-11-18T04:03:30;98838.63;;;0.72;100.00
38688;BME280;24444;53.216;-6.664;2022-11-18T04:06:03;98841.02;;;0.68;100.00
38688;BME280;24444;53.216;-6.664;2022-11-18T04:08:37;98842.32;;;0.49;100.00
38688;BME280;24444;53.216;-6.664;2022-11-18T04:11:10;98848.80;;;1.10;100.00
38688;BME280;24444;53.216;-6.664;2022-11-18T04:13:39;98846.83;;;0.89;100.00
38688;BME280;24444;53.216;-6.664;2022-11-18T04:16:07;98845.44;;;0.49;100.00
38688;BME280;24444;53.216;-6.664;2022-11-18T04:18:34;98846.41;;;0.95;100.00
38688;BME280;24444;53.216;-6.664;2022-11-18T04:21:01;98843.21;;;0.73;100.00
38688;BME280;24444;53.216;-6.664;2022-11-18T04:23:28;98851.43;;;0.81;100.00
38688;BME280;24444;53.216;-6.664;2022-11-18T04:25:55;98856.56;;;0.67;100.00
38688;BME280;24444;53.216;-6.664;2022-11-18T04:28:22;98856.16;;;0.89;100.00
38688;BME280;24444;53.216;-6.664;2022-11-18T04:30:49;98859.94;;;0.88;100.00
38688;BME280;24444;53.216;-6.664;2022-11-18T04:33:16;98867.82;;;0.72;100.00
38688;BME280;24444;53.216;-6.664;2022-11-18T04:35:45;98874.62;;;0.41;100.00
38688;BME280;24444;53.216;-6.664;2022-11-18T04:38:13;98877.52;;;0.84;100.00
38688;BME280;24444;53.216;-6.664;2022-11-18T04:40:40;98876.62;;;0.99;100.00
38688;BME280;24444;53.216;-6.664;2022-11-18T04:43:07;98879.74;;;0.82;100.00
38688;BME280;24444;53.216;-6.664;2022-11-18T04:45:34;98883.81;;;0.47;100.00
38688;BME280;24444;53.216;-6.664;2022-11-18T04:48:01;98889.80;;;0.68;100.00
38688;BME280;24444;53.216;-6.664;2022-11-18T04:50:28;98891.88;;;0.70;100.00
38688;BME280;24444;53.216;-6.664;2022-11-18T04:52:55;98897.95;;;0.90;100.00
38688;BME280;24444;53.216;-6.664;2022-11-18T04:55:22;98901.88;;;0.53;100.00
38688;BME280;24444;53.216;-6.664;2022-11-18T04:57:49;98905.60;;;0.53;100.00
38688;BME280;24444;53.216;-6.664;2022-11-18T05:00:16;98910.39;;;0.50;100.00
38688;BME280;24444;53.216;-6.664;2022-11-18T05:02:43;98911.90;;;0.63;100.00
38688;BME280;24444;53.216;-6.664;2022-11-18T05:05:11;98917.14;;;0.64;100.00
38688;BME280;24444;53.216;-6.664;2022-11-18T05:07:38;98916.54;;;0.61;100.00
38688;BME280;24444;53.216;-6.664;2022-11-18T05:10:05;98918.59;;;0.54;100.00
38688;BME280;24444;53.216;-6.664;2022-11-18T05:12:33;98924.37;;;0.37;100.00
38688;BME280;24444;53.216;-6.664;2022-11-18T05:15:01;98928.48;;;0.32;100.00
38688;BME280;24444;53.216;-6.664;2022-11-18T05:17:28;98933.09;;;0.43;100.00
38688;BME280;24444;53.216;-6.664;2022-11-18T05:19:56;98936.95;;;0.43;100.00
38688;BME280;24444;53.216;-6.664;2022-11-18T05:22:23;98945.42;;;0.12;100.00
38688;BME280;24444;53.216;-6.664;2022-11-18T05:24:50;98940.70;;;0.05;100.00
38688;BME280;24444;53.216;-6.664;2022-11-18T05:27:17;98947.94;;;-0.25;100.00
38688;BME280;24444;53.216;-6.664;2022-11-18T05:29:44;98946.19;;;-0.20;100.00
38688;BME280;24444;53.216;-6.664;2022-11-18T05:32:12;98949.88;;;0.30;100.00
38688;BME280;24444;53.216;-6.664;2022-11-18T05:34:40;98955.93;;;0.04;100.00
38688;BME280;24444;53.216;-6.664;2022-11-18T05:37:08;98953.81;;;-0.11;100.00
38688;BME280;24444;53.216;-6.664;2022-11-18T05:39:36;98951.00;;;0.13;100.00
38688;BME280;24444;53.216;-6.664;2022-11-18T05:42:03;98954.13;;;0.02;100.00
38688;BME280;24444;53.216;-6.664;2022-11-18T05:44:31;98952.83;;;0.05;100.00
38688;BME280;24444;53.216;-6.664;2022-11-18T05:46:58;98957.47;;;0.06;100.00
38688;BME280;24444;53.216;-6.664;2022-11-18T05:49:26;98957.23;;;-0.47;100.00
38688;BME280;24444;53.216;-6.664;2022-11-18T05:51:53;98956.03;;;0.10;100.00
38688;BME280;24444;53.216;-6.664;2022-11-18T05:54:20;98952.24;;;-0.42;100.00
38688;BME280;24444;53.216;-6.664;2022-11-18T05:56:47;98952.85;;;-0.04;100.00
38688;BME280;24444;53.216;-6.664;2022-11-18T05:59:15;98954.10;;;-0.89;100.00
38688;BME280;24444;53.216;-6.664;2022-11-18T06:01:45;98958.02;;;-0.46;100.00
38688;BME280;24444;53.216;-6.664;2022-11-18T06:04:17;98963.10;;;-0.52;100.00
38688;BME280;24444;53.216;-6.664;2022-11-18T06:06:48;98964.00;;;-0.37;100.00
38688;BME280;24444;53.216;-6.664;2022-11-18T06:09:19;98969.11;;;-0.67;100.00
38688;BME280;24444;53.216;-6.664;2022-11-18T06:11:50;98968.47;;;0.07;100.00
38688;BME280;24444;53.216;-6.664;2022-11-18T06:14:21;98967.48;;;-0.17;100.00
38688;BME280;24444;53.216;-6.664;2022-11-18T06:16:54;98966.24;;;-0.58;100.00
38688;BME280;24444;53.216;-6.664;2022-11-18T06:19:22;98969.95;;;-0.92;100.00
38688;BME280;24444;53.216;-6.664;2022-11-18T06:21:50;98975.40;;;-0.79;100.00
38688;BME280;24444;53.216;-6.664;2022-11-18T06:24:18;98981.61;;;-0.65;100.00
38688;BME280;24444;53.216;-6.664;2022-11-18T06:26:46;98983.90;;;-0.94;100.00
38688;BME280;24444;53.216;-6.664;2022-11-18T06:29:15;98986.74;;;-1.06;100.00
38688;BME280;24444;53.216;-6.664;2022-11-18T06:31:43;98989.04;;;-0.51;100.00
38688;BME280;24444;53.216;-6.664;2022-11-18T06:34:11;98986.07;;;-0.65;100.00
38688;BME280;24444;53.216;-6.664;2022-11-18T06:36:39;98986.05;;;-0.92;100.00
38688;BME280;24444;53.216;-6.664;2022-11-18T06:39:06;98992.47;;;-0.65;100.00
38688;BME280;24444;53.216;-6.664;2022-11-18T06:41:34;98997.72;;;-1.05;100.00
38688;BME280;24444;53.216;-6.664;2022-11-18T06:44:01;98997.95;;;-0.71;100.00
38688;BME280;24444;53.216;-6.664;2022-11-18T06:46:28;99006.86;;;-0.40;100.00
38688;BME280;24444;53.216;-6.664;2022-11-18T06:48:56;99014.34;;;-0.88;100.00
38688;BME280;24444;53.216;-6.664;2022-11-18T06:51:24;99022.38;;;-0.86;100.00
38688;BME280;24444;53.216;-6.664;2022-11-18T06:53:52;99025.97;;;-0.93;100.00
38688;BME280;24444;53.216;-6.664;2022-11-18T06:56:20;99030.13;;;-1.17;100.00
38688;BME280;24444;53.216;-6.664;2022-11-18T06:58:52;99036.75;;;-0.87;100.00
38688;BME280;24444;53.216;-6.664;2022-11-18T07:01:22;99041.94;;;-0.89;100.00
38688;BME280;24444;53.216;-6.664;2022-11-18T07:03:51;99051.51;;;-1.32;100.00
38688;BME280;24444;53.216;-6.664;2022-11-18T07:06:20;99052.29;;;-0.89;100.00
38688;BME280;24444;53.216;-6.664;2022-11-18T07:08:49;99049.50;;;-1.10;100.00
38688;BME280;24444;53.216;-6.664;2022-11-18T07:11:19;99049.16;;;-0.68;100.00
38688;BME280;24444;53.216;-6.664;2022-11-18T07:13:48;99051.09;;;-1.11;100.00
38688;BME280;24444;53.216;-6.664;2022-11-18T07:16:17;99047.56;;;-0.56;100.00
38688;BME280;24444;53.216;-6.664;2022-11-18T07:18:46;99045.54;;;-1.28;100.00
38688;BME280;24444;53.216;-6.664;2022-11-18T07:21:15;99048.46;;;-1.13;100.00
38688;BME280;24444;53.216;-6.664;2022-11-18T07:23:42;99051.22;;;-1.13;100.00
38688;BME280;24444;53.216;-6.664;2022-11-18T07:26:10;99055.71;;;-0.75;100.00
38688;BME280;24444;53.216;-6.664;2022-11-18T07:28:37;99062.39;;;-1.28;100.00
38688;BME280;24444;53.216;-6.664;2022-11-18T07:31:06;99067.44;;;-1.52;100.00
38688;BME280;24444;53.216;-6.664;2022-11-18T07:33:34;99075.36;;;-1.39;100.00
38688;BME280;24444;53.216;-6.664;2022-11-18T07:36:04;99077.88;;;-1.56;100.00
38688;BME280;24444;53.216;-6.664;2022-11-18T07:38:32;99085.23;;;-0.77;100.00
38688;BME280;24444;53.216;-6.664;2022-11-18T07:41:04;99088.17;;;-1.30;100.00
38688;BME280;24444;53.216;-6.664;2022-11-18T07:43:32;99092.49;;;-1.10;100.00
38688;BME280;24444;53.216;-6.664;2022-11-18T07:46:10;99099.60;;;-1.03;100.00
38688;BME280;24444;53.216;-6.664;2022-11-18T07:48:37;99102.67;;;-1.34;100.00
38688;BME280;24444;53.216;-6.664;2022-11-18T07:51:04;99107.45;;;-0.48;100.00
38688;BME280;24444;53.216;-6.664;2022-11-18T07:53:32;99108.45;;;-1.35;100.00
38688;BME280;24444;53.216;-6.664;2022-11-18T07:56:01;99112.63;;;-1.28;100.00
38688;BME280;24444;53.216;-6.664;2022-11-18T07:58:27;99111.09;;;-1.14;100.00
38688;BME280;24444;53.216;-6.664;2022-11-18T08:00:55;99111.47;;;-1.54;100.00
38688;BME280;24444;53.216;-6.664;2022-11-18T08:03:25;99109.38;;;-1.56;100.00
38688;BME280;24444;53.216;-6.664;2022-11-18T08:05:52;99111.68;;;-1.32;100.00
38688;BME280;24444;53.216;-6.664;2022-11-18T08:08:20;99114.79;;;-0.93;100.00
38688;BME280;24444;53.216;-6.664;2022-11-18T08:10:47;99124.60;;;-1.63;100.00
38688;BME280;24444;53.216;-6.664;2022-11-18T08:13:14;99129.22;;;-1.01;100.00
38688;BME280;24444;53.216;-6.664;2022-11-18T08:15:41;99136.67;;;-1.30;100.00
38688;BME280;24444;53.216;-6.664;2022-11-18T08:18:14;99136.19;;;-1.27;100.00
38688;BME280;24444;53.216;-6.664;2022-11-18T08:20:41;99142.01;;;-1.69;100.00
38688;BME280;24444;53.216;-6.664;2022-11-18T08:23:09;99148.99;;;-1.50;100.00
38688;BME280;24444;53.216;-6.664;2022-11-18T08:25:36;99149.32;;;-1.67;100.00
38688;BME280;24444;53.216;-6.664;2022-11-18T08:28:04;99154.38;;;-1.82;100.00
38688;BME280;24444;53.216;-6.664;2022-11-18T08:30:32;99156.57;;;-1.10;100.00
38688;BME280;24444;53.216;-6.664;2022-11-18T08:33:00;99162.11;;;-1.79;100.00
38688;BME280;24444;53.216;-6.664;2022-11-18T08:35:28;99165.31;;;-1.62;100.00
38688;BME280;24444;53.216;-6.664;2022-11-18T08:37:56;99171.54;;;-1.14;100.00
38688;BME280;24444;53.216;-6.664;2022-11-18T08:40:24;99174.76;;;-1.49;100.00
38688;BME280;24444;53.216;-6.664;2022-11-18T08:42:52;99172.02;;;-1.11;100.00
38688;BME280;24444;53.216;-6.664;2022-11-18T08:45:19;99174.63;;;-1.36;100.00
38688;BME280;24444;53.216;-6.664;2022-11-18T08:47:46;99174.04;;;-1.08;100.00
38688;BME280;24444;53.216;-6.664;2022-11-18T08:50:13;99178.08;;;-1.32;100.00
38688;BME280;24444;53.216;-6.664;2022-11-18T08:52:40;99178.48;;;-1.24;100.00
38688;BME280;24444;53.216;-6.664;2022-11-18T08:55:08;99179.81;;;-0.56;100.00
38688;BME280;24444;53.216;-6.664;2022-11-18T08:57:36;99184.31;;;-0.67;100.00
38688;BME280;24444;53.216;-6.664;2022-11-18T09:00:05;99186.76;;;-1.13;100.00
38688;BME280;24444;53.216;-6.664;2022-11-18T09:02:33;99191.12;;;-0.69;100.00
38688;BME280;24444;53.216;-6.664;2022-11-18T09:05:01;99192.34;;;-1.43;100.00
38688;BME280;24444;53.216;-6.664;2022-11-18T09:07:28;99195.12;;;-0.93;100.00
38688;BME280;24444;53.216;-6.664;2022-11-18T09:09:56;99196.83;;;-1.23;100.00
38688;BME280;24444;53.216;-6.664;2022-11-18T09:12:23;99197.24;;;-0.83;100.00
38688;BME280;24444;53.216;-6.664;2022-11-18T09:14:51;99207.36;;;-1.06;100.00
38688;BME280;24444;53.216;-6.664;2022-11-18T09:17:18;99211.95;;;-0.79;100.00
38688;BME280;24444;53.216;-6.664;2022-11-18T09:19:45;99219.43;;;-1.10;100.00
38688;BME280;24444;53.216;-6.664;2022-11-18T09:22:13;99220.88;;;-0.05;100.00
38688;BME280;24444;53.216;-6.664;2022-11-18T09:24:40;99225.98;;;-0.72;100.00
38688;BME280;24444;53.216;-6.664;2022-11-18T09:27:08;99227.33;;;-0.59;100.00
38688;BME280;24444;53.216;-6.664;2022-11-18T09:29:35;99229.52;;;-0.64;100.00
38688;BME280;24444;53.216;-6.664;2022-11-18T09:32:02;99232.09;;;-0.50;100.00
38688;BME280;24444;53.216;-6.664;2022-11-18T09:34:32;99233.36;;;-0.32;100.00
38688;BME280;24444;53.216;-6.664;2022-11-18T09:36:59;99237.67;;;-0.34;100.00
38688;BME280;24444;53.216;-6.664;2022-11-18T09:39:29;99239.72;;;-0.44;100.00
38688;BME280;24444;53.216;-6.664;2022-11-18T09:42:05;99239.52;;;-0.46;100.00
38688;BME280;24444;53.216;-6.664;2022-11-18T09:45:04;99236.01;;;-0.25;100.00
38688;BME280;24444;53.216;-6.664;2022-11-18T09:47:34;99237.51;;;-1.01;100.00
38688;BME280;24444;53.216;-6.664;2022-11-18T09:50:04;99241.32;;;-0.22;100.00
38688;BME280;24444;53.216;-6.664;2022-11-18T09:52:38;99238.55;;;-0.50;100.00
38688;BME280;24444;53.216;-6.664;2022-11-18T09:55:11;99239.04;;;-0.10;100.00
38688;BME280;24444;53.216;-6.664;2022-11-18T09:57:42;99236.70;;;-0.64;100.00
38688;BME280;24444;53.216;-6.664;2022-11-18T10:00:14;99241.50;;;-0.23;100.00
38688;BME280;24444;53.216;-6.664;2022-11-18T10:02:51;99239.31;;;-0.10;100.00
38688;BME280;24444;53.216;-6.664;2022-11-18T10:05:24;99243.87;;;0.26;100.00
38688;BME280;24444;53.216;-6.664;2022-11-18T10:08:07;99248.30;;;0.18;100.00
38688;BME280;24444;53.216;-6.664;2022-11-18T10:10:46;99250.83;;;-0.10;100.00
38688;BME280;24444;53.216;-6.664;2022-11-18T10:13:26;99256.47;;;0.56;100.00
38688;BME280;24444;53.216;-6.664;2022-11-18T10:16:07;99258.88;;;0.52;100.00
38688;BME280;24444;53.216;-6.664;2022-11-18T10:18:41;99266.76;;;0.19;100.00
38688;BME280;24444;53.216;-6.664;2022-11-18T10:21:17;99267.21;;;-0.06;100.00
38688;BME280;24444;53.216;-6.664;2022-11-18T10:23:52;99266.43;;;-0.31;100.00
38688;BME280;24444;53.216;-6.664;2022-11-18T10:26:34;99267.71;;;0.10;100.00
38688;BME280;24444;53.216;-6.664;2022-11-18T10:29:01;99279.34;;;0.18;100.00
38688;BME280;24444;53.216;-6.664;2022-11-18T10:31:29;99286.79;;;0.26;100.00
38688;BME280;24444;53.216;-6.664;2022-11-18T10:34:00;99290.53;;;0.39;100.00
38688;BME280;24444;53.216;-6.664;2022-11-18T10:36:29;99291.14;;;0.68;100.00
38688;BME280;24444;53.216;-6.664;2022-11-18T10:39:14;99294.67;;;0.91;100.00
38688;BME280;24444;53.216;-6.664;2022-11-18T10:41:45;99296.23;;;0.59;100.00
38688;BME280;24444;53.216;-6.664;2022-11-18T10:44:35;99292.17;;;0.52;99.71
38688;BME280;24444;53.216;-6.664;2022-11-18T10:47:35;99293.87;;;0.75;100.00
38688;BME280;24444;53.216;-6.664;2022-11-18T10:50:27;99290.05;;;0.65;100.00
38688;BME280;24444;53.216;-6.664;2022-11-18T10:52:55;99295.47;;;0.97;100.00
38688;BME280;24444;53.216;-6.664;2022-11-18T10:55:24;99295.34;;;1.99;98.55
38688;BME280;24444;53.216;-6.664;2022-11-18T10:57:56;99299.34;;;2.68;94.49
38688;BME280;24444;53.216;-6.664;2022-11-18T11:00:43;99301.20;;;2.32;90.40
38688;BME280;24444;53.216;-6.664;2022-11-18T11:03:26;99307.56;;;2.75;87.77
38688;BME280;24444;53.216;-6.664;2022-11-18T11:06:32;99303.37;;;3.86;85.42
38688;BME280;24444;53.216;-6.664;2022-11-18T11:09:04;99305.55;;;4.30;84.05
38688;BME280;24444;53.216;-6.664;2022-11-18T11:11:34;99304.41;;;4.84;83.73
38688;BME280;24444;53.216;-6.664;2022-11-18T11:14:21;99312.63;;;5.99;76.81
38688;BME280;24444;53.216;-6.664;2022-11-18T11:16:57;99324.72;;;6.30;73.27
38688;BME280;24444;53.216;-6.664;2022-11-18T11:19:32;99324.57;;;6.54;69.21
38688;BME280;24444;53.216;-6.664;2022-11-18T11:22:01;99327.63;;;5.95;68.66
38688;BME280;24444;53.216;-6.664;2022-11-18T11:24:28;99333.21;;;5.93;69.21
38688;BME280;24444;53.216;-6.664;2022-11-18T11:27:04;99342.08;;;5.95;66.96
38688;BME280;24444;53.216;-6.664;2022-11-18T11:29:46;99334.82;;;6.18;65.69
38688;BME280;24444;53.216;-6.664;2022-11-18T11:32:25;99339.29;;;6.31;65.41
38688;BME280;24444;53.216;-6.664;2022-11-18T11:35:00;99339.84;;;6.83;66.55
38688;BME280;24444;53.216;-6.664;2022-11-18T11:37:40;99342.94;;;6.85;69.05
38688;BME280;24444;53.216;-6.664;2022-11-18T11:40:22;99346.30;;;7.20;67.08
38688;BME280;24444;53.216;-6.664;2022-11-18T11:43:02;99349.06;;;6.50;66.31
38688;BME280;24444;53.216;-6.664;2022-11-18T11:45:39;99346.68;;;6.86;65.65
38688;BME280;24444;53.216;-6.664;2022-11-18T11:48:20;99342.72;;;7.57;63.41
38688;BME280;24444;53.216;-6.664;2022-11-18T11:50:54;99348.14;;;7.25;64.53
38688;BME280;24444;53.216;-6.664;2022-11-18T11:53:35;99345.91;;;7.46;62.15
38688;BME280;24444;53.216;-6.664;2022-11-18T11:56:13;99349.74;;;7.05;60.87
38688;BME280;24444;53.216;-6.664;2022-11-18T11:59:03;99348.91;;;6.23;64.89
38688;BME280;24444;53.216;-6.664;2022-11-18T12:01:36;99348.37;;;5.93;69.96
38688;BME280;24444;53.216;-6.664;2022-11-18T12:04:17;99355.11;;;5.45;69.22
38688;BME280;24444;53.216;-6.664;2022-11-18T12:06:50;99360.27;;;5.05;74.45
38688;BME280;24444;53.216;-6.664;2022-11-18T12:09:29;99355.88;;;4.60;71.74
38688;BME280;24444;53.216;-6.664;2022-11-18T12:12:04;99356.65;;;4.91;75.96
38688;BME280;24444;53.216;-6.664;2022-11-18T12:14:39;99357.85;;;4.44;75.37
38688;BME280;24444;53.216;-6.664;2022-11-18T12:17:16;99362.24;;;4.04;76.81
38688;BME280;24444;53.216;-6.664;2022-11-18T12:19:45;99368.25;;;4.40;78.74
38688;BME280;24444;53.216;-6.664;2022-11-18T12:22:13;99371.83;;;4.70;77.25
38688;BME280;24444;53.216;-6.664;2022-11-18T12:24:41;99369.76;;;4.36;79.54
38688;BME280;24444;53.216;-6.664;2022-11-18T12:27:14;99371.35;;;4.10;79.45
38688;BME280;24444;53.216;-6.664;2022-11-18T12:30:21;99379.79;;;4.14;81.51
38688;BME280;24444;53.216;-6.664;2022-11-18T12:32:54;99384.73;;;4.63;81.35
38688;BME280;24444;53.216;-6.664;2022-11-18T12:35:25;99388.25;;;5.00;78.05
38688;BME280;24444;53.216;-6.664;2022-11-18T12:37:59;99388.62;;;5.23;76.80
38688;BME280;24444;53.216;-6.664;2022-11-18T12:40:43;99379.82;;;5.08;77.15
38688;BME280;24444;53.216;-6.664;2022-11-18T12:44:22;99385.94;;;5.15;76.52
38688;BME280;24444;53.216;-6.664;2022-11-18T12:46:52;99391.44;;;4.74;77.03
38688;BME280;24444;53.216;-6.664;2022-11-18T12:50:46;99393.38;;;5.81;75.93
38688;BME280;24444;53.216;-6.664;2022-11-18T12:53:30;99395.43;;;5.02;80.81
38688;BME280;24444;53.216;-6.664;2022-11-18T12:55:59;99398.16;;;4.64;79.02
38688;BME280;24444;53.216;-6.664;2022-11-18T12:58:26;99399.55;;;4.65;76.73
38688;BME280;24444;53.216;-6.664;2022-11-18T13:01:05;99400.41;;;4.80;75.88
38688;BME280;24444;53.216;-6.664;2022-11-18T13:03:33;99406.14;;;4.99;76.37
38688;BME280;24444;53.216;-6.664;2022-11-18T13:06:06;99408.46;;;4.49;77.66
38688;BME280;24444;53.216;-6.664;2022-11-18T13:08:39;99411.57;;;4.37;78.27
38688;BME280;24444;53.216;-6.664;2022-11-18T13:11:13;99411.17;;;3.42;80.26
38688;BME280;24444;53.216;-6.664;2022-11-18T13:13:42;99417.90;;;4.02;80.65